createdAt,value
2018-12-24T00:04:56.406Z,5.27
2018-12-24T00:10:04.012Z,5.27
2018-12-24T00:15:10.370Z,5.47
2018-12-24T00:20:17.044Z,5.69
2018-12-24T00:25:23.396Z,5.66
2018-12-24T00:30:29.611Z,5.47
2018-12-24T00:35:36.098Z,5.35
2018-12-24T00:40:43.440Z,5.27
2018-12-24T00:45:49.698Z,5.21
2018-12-24T00:50:56.260Z,5.24
2018-12-24T00:56:02.420Z,5.10
2018-12-24T01:01:08.656Z,4.54
2018-12-24T01:06:15.300Z,4.97
2018-12-24T01:11:21.525Z,4.56
2018-12-24T01:16:30.929Z,5.07
2018-12-24T01:21:37.668Z,4.66
2018-12-24T01:26:46.533Z,5.01
2018-12-24T01:31:52.735Z,5.20
2018-12-24T01:37:00.624Z,5.20
2018-12-24T01:42:07.137Z,5.09
2018-12-24T01:47:13.356Z,5.23
2018-12-24T01:52:19.995Z,5.24
2018-12-24T01:57:26.241Z,5.24
2018-12-24T02:02:32.481Z,5.19
2018-12-24T02:07:38.688Z,4.95
2018-12-24T02:12:44.914Z,4.94
2018-12-24T02:17:51.411Z,4.94
2018-12-24T02:22:57.556Z,5.23
2018-12-24T02:28:06.974Z,5.10
2018-12-24T02:33:16.240Z,5.17
2018-12-24T02:38:30.961Z,5.17
2018-12-24T02:43:37.596Z,5.13
2018-12-24T02:48:43.781Z,4.86
2018-12-24T02:53:50.309Z,4.86
2018-12-24T02:58:56.588Z,4.83
2018-12-24T03:04:02.793Z,4.76
2018-12-24T03:09:09.102Z,4.62
2018-12-24T03:14:15.341Z,4.89
2018-12-24T03:19:21.774Z,5.28
2018-12-24T03:24:28.312Z,4.76
2018-12-24T03:29:35.729Z,4.76
2018-12-24T03:34:41.914Z,5.04
2018-12-24T03:39:48.196Z,4.81
2018-12-24T03:44:54.378Z,4.55
2018-12-24T03:50:00.922Z,4.61
2018-12-24T03:55:08.194Z,4.48
2018-12-24T04:00:14.606Z,4.78
2018-12-24T04:05:22.349Z,4.96
2018-12-24T04:10:28.782Z,5.01
2018-12-24T04:15:35.076Z,4.86
2018-12-24T04:20:41.404Z,4.75
2018-12-24T04:25:47.729Z,4.45
2018-12-24T04:30:54.125Z,4.05
2018-12-24T04:36:00.337Z,4.18
2018-12-24T04:41:08.328Z,4.25
2018-12-24T04:46:15.122Z,4.34
2018-12-24T04:51:21.348Z,4.16
2018-12-24T04:56:27.942Z,4.12
2018-12-24T05:01:34.292Z,3.89
2018-12-24T05:06:40.517Z,3.90
2018-12-24T05:11:46.793Z,3.91
2018-12-24T05:16:53.210Z,4.01
2018-12-24T05:21:59.856Z,3.69
2018-12-24T05:27:09.093Z,3.32
2018-12-24T05:32:15.311Z,3.50
2018-12-24T05:37:21.508Z,3.11
2018-12-24T05:42:28.054Z,2.96
2018-12-24T05:47:34.270Z,2.78
2018-12-24T05:52:40.688Z,2.68
2018-12-24T05:57:46.924Z,2.78
2018-12-24T06:02:53.510Z,2.88
2018-12-24T06:07:59.753Z,2.59
2018-12-24T06:13:07.337Z,2.85
2018-12-24T06:18:13.931Z,2.72
2018-12-24T06:23:20.322Z,2.65
2018-12-24T06:28:26.977Z,2.41
2018-12-24T06:33:33.341Z,2.79
2018-12-24T06:38:39.645Z,2.40
2018-12-24T06:43:45.900Z,2.67
2018-12-24T06:48:52.671Z,2.70
2018-12-24T06:53:58.910Z,2.54
2018-12-24T06:59:08.562Z,2.39
2018-12-24T07:04:15.055Z,2.67
2018-12-24T07:09:21.548Z,2.70
2018-12-24T07:14:27.929Z,2.75
2018-12-24T07:19:34.165Z,2.68
2018-12-24T07:24:40.556Z,2.36
2018-12-24T07:29:47.075Z,2.57
2018-12-24T07:34:55.830Z,2.73
2018-12-24T07:40:02.077Z,2.77
2018-12-24T07:45:11.530Z,2.49
2018-12-24T07:50:17.774Z,2.39
2018-12-24T07:55:24.160Z,2.66
2018-12-24T08:00:32.887Z,2.42
2018-12-24T08:05:39.309Z,2.59
2018-12-24T08:10:45.554Z,2.50
2018-12-24T08:15:51.820Z,2.80
2018-12-24T08:20:57.984Z,2.76
2018-12-24T08:26:09.413Z,2.51
2018-12-24T08:31:15.673Z,2.20
2018-12-24T08:36:21.968Z,1.95
2018-12-24T08:41:28.219Z,1.74
2018-12-24T08:46:34.751Z,1.72
2018-12-24T08:51:41.608Z,1.87
2018-12-24T08:56:48.184Z,1.89
2018-12-24T09:06:58.904Z,2.20
2018-12-24T09:12:06.677Z,1.94
2018-12-24T09:17:12.925Z,2.21
2018-12-24T09:22:19.342Z,2.07
2018-12-24T09:27:25.925Z,2.03
2018-12-24T09:32:32.108Z,1.76
2018-12-24T09:37:38.385Z,1.81
2018-12-24T09:42:44.733Z,1.78
2018-12-24T09:47:50.985Z,1.96
2018-12-24T09:53:00.446Z,1.92
2018-12-24T09:58:09.665Z,1.67
2018-12-24T10:03:22.731Z,1.69
2018-12-24T10:08:32.441Z,1.54
2018-12-24T10:13:38.657Z,1.69
2018-12-24T10:18:46.222Z,1.87
2018-12-24T10:23:52.737Z,1.72
2018-12-24T10:28:58.981Z,2.07
2018-12-24T10:34:08.235Z,1.66
2018-12-24T10:39:14.665Z,1.60
2018-12-24T10:44:20.940Z,1.31
2018-12-24T10:49:28.217Z,1.39
2018-12-24T10:54:35.405Z,1.48
2018-12-24T11:05:59.135Z,1.96
2018-12-24T11:11:05.045Z,1.90
2018-12-24T11:16:11.002Z,1.58
2018-12-24T11:21:18.327Z,1.36
2018-12-24T11:26:24.581Z,1.66
2018-12-24T11:31:31.868Z,1.65
2018-12-24T11:36:37.639Z,2.41
2018-12-24T11:41:44.319Z,1.82
2018-12-24T11:46:50.213Z,1.86
2018-12-24T11:51:56.074Z,2.15
2018-12-24T11:57:05.320Z,1.97
2018-12-24T12:02:12.686Z,1.50
2018-12-24T12:07:18.578Z,1.69
2018-12-24T12:12:24.382Z,2.09
2018-12-24T12:17:31.286Z,1.58
2018-12-24T12:22:38.111Z,2.22
2018-12-24T12:27:47.349Z,1.93
2018-12-24T12:32:53.747Z,2.10
2018-12-24T12:37:59.919Z,2.20
2018-12-24T12:43:09.260Z,2.03
2018-12-24T12:48:15.694Z,0.80
2018-12-24T12:53:21.583Z,0.78
2018-12-24T12:58:30.706Z,0.54
2018-12-24T13:03:36.857Z,0.62
2018-12-24T13:08:42.663Z,0.56
2018-12-24T13:13:48.980Z,0.37
2018-12-24T13:18:54.847Z,0.21
2018-12-24T13:24:00.654Z,0.47
2018-12-24T13:29:07.236Z,0.42
2018-12-24T13:34:13.050Z,0.36
2018-12-24T13:39:19.174Z,0.60
2018-12-24T13:44:25.404Z,0.60
2018-12-24T13:49:31.411Z,0.23
2018-12-24T13:54:37.198Z,0.06
2018-12-24T13:59:43.084Z,0.19
2018-12-24T14:04:49.009Z,0.24
2018-12-24T14:09:54.883Z,0.68
2018-12-24T14:15:06.887Z,0.49
2018-12-24T14:20:12.731Z,0.48
2018-12-24T14:25:24.525Z,0.58
2018-12-24T14:30:29.432Z,0.67
2018-12-24T14:35:36.198Z,0.89
2018-12-24T14:40:44.039Z,1.27
2018-12-24T14:45:49.920Z,1.24
2018-12-24T14:50:55.664Z,0.58
2018-12-24T14:56:01.398Z,0.92
2018-12-24T15:06:12.810Z,1.20
2018-12-24T15:11:18.533Z,0.98
2018-12-24T15:16:34.075Z,0.41
2018-12-24T15:21:34.634Z,0.56
2018-12-24T15:26:40.380Z,0.09
2018-12-24T15:31:46.279Z,-0.14
2018-12-24T15:36:52.119Z,-0.03
2018-12-24T15:41:57.937Z,-0.19
2018-12-24T15:47:04.452Z,0.14
2018-12-24T15:52:13.433Z,-0.02
2018-12-24T15:57:19.269Z,0.14
2018-12-24T16:02:25.203Z,0.15
2018-12-24T16:07:31.858Z,0.09
2018-12-24T16:12:39.235Z,0.12
2018-12-24T16:17:45.059Z,0.22
2018-12-24T16:22:51.412Z,0.12
2018-12-24T16:27:57.425Z,0.06
2018-12-24T16:33:04.695Z,0.14
2018-12-24T16:43:15.862Z,0.59
2018-12-24T16:48:23.234Z,0.81
2018-12-24T16:53:29.049Z,0.49
2018-12-24T16:58:34.842Z,0.62
2018-12-24T17:03:40.591Z,0.73
2018-12-24T17:08:46.818Z,0.82
2018-12-24T17:13:52.893Z,0.60
2018-12-24T17:18:58.712Z,0.90
2018-12-24T17:24:06.409Z,0.79
2018-12-24T17:29:12.862Z,0.84
2018-12-24T17:34:18.944Z,1.06
2018-12-24T17:39:27.430Z,0.50
2018-12-24T17:44:33.752Z,1.06
2018-12-24T17:49:39.602Z,1.03
2018-12-24T17:54:50.922Z,0.87
2018-12-24T17:59:57.219Z,0.65
2018-12-24T18:05:08.955Z,1.08
2018-12-24T18:10:16.973Z,1.11
2018-12-24T18:15:24.425Z,1.16
2018-12-24T18:20:30.332Z,1.08
2018-12-24T18:25:39.686Z,1.05
2018-12-24T18:30:45.748Z,1.06
2018-12-24T18:35:53.492Z,0.90
2018-12-24T18:41:03.944Z,1.20
2018-12-24T18:46:09.593Z,1.17
2018-12-24T18:51:18.265Z,1.07
2018-12-24T18:56:27.192Z,1.28
2018-12-24T19:01:33.329Z,1.16
2018-12-24T19:06:39.412Z,1.21
2018-12-24T19:11:47.349Z,1.15
2018-12-24T19:16:53.261Z,1.29
2018-12-24T19:22:04.147Z,1.38
2018-12-24T19:27:10.181Z,1.30
2018-12-24T19:32:16.437Z,1.49
2018-12-24T19:37:22.213Z,1.47
2018-12-24T19:42:28.395Z,1.19
2018-12-24T19:47:34.479Z,1.35
2018-12-24T19:52:40.300Z,1.44
2018-12-24T19:57:46.467Z,1.51
2018-12-24T20:02:52.295Z,1.43
2018-12-24T20:07:58.360Z,1.55
2018-12-24T20:13:07.224Z,1.68
2018-12-24T20:18:14.852Z,1.91
2018-12-24T20:23:21.017Z,2.05
2018-12-24T20:28:26.842Z,1.92
2018-12-24T20:33:33.248Z,1.69
2018-12-24T20:38:39.149Z,2.04
2018-12-24T20:43:53.265Z,1.89
2018-12-24T20:49:02.604Z,2.31
2018-12-24T20:54:08.607Z,1.83
2018-12-24T20:59:17.567Z,1.90
2018-12-24T21:04:23.489Z,2.11
2018-12-24T21:09:31.664Z,1.86
2018-12-24T21:14:38.805Z,1.97
2018-12-24T21:19:44.678Z,1.82
2018-12-24T21:24:50.544Z,1.72
2018-12-24T21:29:57.913Z,1.51
2018-12-24T21:35:07.368Z,1.67
2018-12-24T21:40:13.198Z,1.44
2018-12-24T21:45:19.112Z,1.47
2018-12-24T21:50:26.471Z,1.71
2018-12-24T21:55:32.722Z,1.54
2018-12-24T22:00:40.420Z,1.54
2018-12-24T22:05:46.302Z,1.52
2018-12-24T22:10:55.792Z,1.80
2018-12-24T22:16:02.382Z,1.50
2018-12-24T22:21:08.622Z,1.69
2018-12-24T22:26:17.177Z,1.72
2018-12-24T22:31:23.543Z,1.66
2018-12-24T22:36:29.468Z,1.62
2018-12-24T22:41:35.415Z,1.67
2018-12-24T22:46:41.259Z,1.66
2018-12-24T22:51:47.279Z,1.50
2018-12-24T22:56:53.219Z,1.55
2018-12-24T23:01:59.325Z,1.56
2018-12-24T23:07:08.207Z,1.66
2018-12-24T23:12:15.413Z,1.94
2018-12-24T23:17:21.255Z,1.83
2018-12-24T23:22:27.408Z,1.74
2018-12-24T23:27:33.228Z,1.72
2018-12-24T23:32:39.065Z,1.92
2018-12-24T23:37:45.041Z,1.74
2018-12-24T23:42:51.547Z,1.75
2018-12-24T23:47:57.358Z,1.94
2018-12-24T23:59:32.459Z,1.84
